Time;durP1;ratioP1;P1;durP2;ratioP2;P2;SDS_P1;SDS_P2;PMS_P1;PMS_P2;Temp;Humidity;BMP_temperature;BMP_pressure;BME280_temperature;BME280_humidity;BME280_pressure;Samples;Min_cycle;Max_cycle;Signal;HPM_P1;HPM_P2
2022/11/27 00:01:23;;;;;;;12.13;10.93;;;;;;;5.64;91.33;101790.34;5015114;28;20211;-78
2022/11/27 00:03:50;;;;;;;12.77;11.47;;;;;;;5.37;92.99;101770.75;5015895;28;20203;-78
2022/11/27 00:06:19;;;;;;;12.53;11.33;;;;;;;5.28;94.74;101721.31;5016407;28;20211;-78
2022/11/27 00:08:46;;;;;;;11.83;10.63;;;;;;;5.34;94.91;101697.28;5015838;28;20223;-78
2022/11/27 00:11:16;;;;;;;13.90;11.73;;;;;;;5.32;94.70;101686.03;5015392;28;20251;-77
2022/11/27 00:13:44;;;;;;;12.93;11.73;;;;;;;5.42;94.50;101679.34;5016382;28;20210;-78
2022/11/27 00:16:11;;;;;;;13.37;10.93;;;;;;;5.42;94.96;101669.84;5016041;28;20213;-78
2022/11/27 00:18:38;;;;;;;11.73;10.50;;;;;;;5.44;94.52;101681.13;5016641;28;20211;-77
2022/11/27 00:21:06;;;;;;;11.37;10.27;;;;;;;5.33;94.65;101692.94;5015976;28;20237;-78
2022/11/27 00:23:33;;;;;;;12.23;10.57;;;;;;;5.43;94.67;101692.34;5015984;28;20217;-78
2022/11/27 00:26:00;;;;;;;14.57;11.07;;;;;;;5.51;94.07;101692.47;5016522;28;20204;-78
2022/11/27 00:28:26;;;;;;;10.90;9.90;;;;;;;5.51;93.89;101698.56;5016110;28;20236;-78
2022/11/27 00:30:58;;;;;;;10.63;9.70;;;;;;;5.40;94.53;101688.78;5016052;28;20240;-78
2022/11/27 00:33:24;;;;;;;9.93;8.97;;;;;;;5.40;94.10;101692.25;5016417;28;20211;-78
2022/11/27 00:35:51;;;;;;;13.00;9.50;;;;;;;5.44;93.01;101703.56;5016763;28;20217;-77
2022/11/27 00:38:19;;;;;;;10.40;9.20;;;;;;;5.43;93.09;101699.19;5016606;28;20203;-78
2022/11/27 00:40:45;;;;;;;11.10;9.00;;;;;;;5.42;92.94;101702.66;5032348;22;20335;-84
2022/11/27 00:43:12;;;;;;;12.73;9.83;;;;;;;5.36;92.74;101705.97;5003223;28;20211;-85
2022/11/27 00:45:38;;;;;;;13.27;9.17;;;;;;;5.34;93.40;101700.75;4996443;28;20212;-85
2022/11/27 00:48:06;;;;;;;9.63;8.73;;;;;;;5.41;93.43;101700.88;4997356;28;20213;-83
2022/11/27 00:50:33;;;;;;;9.60;8.70;;;;;;;5.40;92.77;101699.16;4996716;28;20289;-85
2022/11/27 00:52:59;;;;;;;10.50;9.50;;;;;;;5.41;91.84;101719.91;4997204;28;20586;-86
2022/11/27 00:55:26;;;;;;;10.73;9.63;;;;;;;5.39;92.12;101726.72;4996307;28;20207;-86
2022/11/27 00:57:53;;;;;;;10.97;9.77;;;;;;;5.37;92.33;101724.13;4995780;28;20212;-86
2022/11/27 01:00:20;;;;;;;9.80;9.00;;;;;;;5.37;92.03;101729.31;4996002;28;20231;-86
2022/11/27 01:02:46;;;;;;;10.07;9.03;;;;;;;5.25;91.91;101739.38;4995748;28;20864;-86
2022/11/27 01:05:14;;;;;;;10.37;9.37;;;;;;;5.22;92.39;101734.13;4997961;28;20215;-85
2022/11/27 01:07:40;;;;;;;10.37;9.37;;;;;;;5.10;92.26;101729.53;5000634;28;20204;-85
2022/11/27 01:10:08;;;;;;;10.60;9.50;;;;;;;5.08;92.43;101715.66;4999648;28;20238;-85
2022/11/27 01:12:35;;;;;;;11.03;9.93;;;;;;;4.93;93.54;101694.59;5000181;28;20210;-84
2022/11/27 01:15:01;;;;;;;13.07;10.30;;;;;;;5.04;93.12;101687.09;5000543;28;20214;-85
2022/11/27 01:17:28;;;;;;;12.73;10.40;;;;;;;5.02;93.13;101687.06;5000838;28;20210;-84
2022/11/27 01:19:54;;;;;;;14.60;9.63;;;;;;;5.04;92.75;101690.56;5000472;28;20219;-82
2022/11/27 01:22:22;;;;;;;10.33;9.17;;;;;;;4.99;93.12;101684.38;4999477;28;20208;-84
2022/11/27 01:24:49;;;;;;;11.30;9.67;;;;;;;4.93;92.75;101687.69;5001184;28;20697;-84
2022/11/27 01:27:15;;;;;;;9.40;8.50;;;;;;;4.91;92.78;101691.97;4999918;28;20213;-85
2022/11/27 01:29:41;;;;;;;9.50;8.70;;;;;;;4.92;92.34;101687.69;5000192;28;20228;-84
2022/11/27 01:32:08;;;;;;;8.90;8.00;;;;;;;4.88;91.75;101697.06;4999902;28;20204;-85
2022/11/27 01:34:35;;;;;;;9.83;8.57;;;;;;;4.90;91.65;101703.16;5000773;28;20208;-84
2022/11/27 01:37:01;;;;;;;10.27;9.27;;;;;;;4.89;91.97;101703.13;5000395;28;20208;-84
2022/11/27 01:39:29;;;;;;;10.50;9.50;;;;;;;4.89;91.47;101697.94;5000180;28;20209;-86
2022/11/27 01:41:55;;;;;;;11.90;9.20;;;;;;;4.91;91.88;101698.84;4999727;28;20224;-86
2022/11/27 01:44:52;;;;;;;11.20;10.10;;;;;;;4.73;92.32;101692.38;4999832;28;20215;-86
2022/11/27 01:47:31;;;;;;;14.17;10.43;;;;;;;4.72;92.81;101682.88;5000197;28;20240;-86
2022/11/27 01:50:05;;;;;;;11.63;9.60;;;;;;;4.79;92.60;101678.72;4998982;28;20248;-84
2022/11/27 01:52:36;;;;;;;14.13;11.30;;;;;;;4.78;92.88;101683.03;4999780;28;20673;-84
2022/11/27 01:55:07;;;;;;;15.07;11.20;;;;;;;4.81;92.59;101673.59;5000279;28;20204;-85
2022/11/27 01:57:39;;;;;;;12.50;11.20;;;;;;;4.76;92.36;101676.09;4999842;28;20208;-86
2022/11/27 02:00:08;;;;;;;11.40;10.30;;;;;;;4.77;92.31;101678.69;4999743;28;20223;-86
2022/11/27 02:02:35;;;;;;;11.60;10.40;;;;;;;4.80;92.23;101683.09;5000000;28;20212;-86
2022/11/27 02:05:02;;;;;;;12.07;10.90;;;;;;;4.84;91.92;101697.84;4999164;28;20208;-86
2022/11/27 02:07:28;;;;;;;11.77;10.57;;;;;;;4.86;91.25;101700.47;5000518;28;20218;-86
2022/11/27 02:09:54;;;;;;;11.90;10.17;;;;;;;4.86;91.01;101708.22;4998437;28;20608;-86
2022/11/27 02:12:25;;;;;;;11.93;10.83;;;;;;;4.86;91.21;101716.00;4999386;28;20245;-86
2022/11/27 02:15:03;;;;;;;11.67;10.47;;;;;;;4.85;90.21;101717.69;4999777;28;20223;-85
2022/11/27 02:17:37;;;;;;;12.83;11.40;;;;;;;4.88;90.88;101735.00;4999136;28;20667;-84
2022/11/27 02:20:17;;;;;;;12.07;10.90;;;;;;;4.89;90.86;101732.44;4999683;28;20227;-86
2022/11/27 02:23:00;;;;;;;18.03;11.73;;;;;;;4.87;90.55;101741.00;4999040;28;20215;-84
2022/11/27 02:25:33;;;;;;;14.87;11.27;;;;;;;4.84;90.78;101743.53;4998765;28;20211;-87
2022/11/27 02:28:22;;;;;;;15.10;12.13;;;;;;;4.73;90.83;101740.66;4999110;28;20219;-86
2022/11/27 02:30:56;;;;;;;12.23;11.03;;;;;;;4.76;92.08;101695.06;4998948;28;20220;-84
2022/11/27 02:33:23;;;;;;;11.77;10.20;;;;;;;4.82;91.90;101684.00;4998762;28;20577;-87
2022/11/27 02:35:54;;;;;;;11.93;10.87;;;;;;;4.87;91.32;101687.53;4998977;28;20211;-86
2022/11/27 02:38:25;;;;;;;11.67;10.57;;;;;;;4.86;91.02;101680.63;4999138;28;20598;-86
2022/11/27 02:40:56;;;;;;;12.47;10.30;;;;;;;4.86;90.73;101687.53;4998635;28;20236;-85
2022/11/27 02:43:26;;;;;;;13.20;11.80;;;;;;;4.89;90.68;101691.03;4999527;28;20212;-84
2022/11/27 02:45:57;;;;;;;15.73;11.63;;;;;;;4.94;90.59;101686.00;4999594;28;20592;-85
2022/11/27 02:48:35;;;;;;;14.27;11.50;;;;;;;4.90;90.84;101676.41;4999025;28;20204;-84
2022/11/27 02:51:03;;;;;;;11.10;9.97;;;;;;;4.95;90.99;101664.44;4999494;28;20230;-85
2022/11/27 02:53:34;;;;;;;12.30;11.13;;;;;;;4.86;91.63;101659.94;4999547;28;20714;-84
2022/11/27 02:56:04;;;;;;;11.43;10.33;;;;;;;4.85;91.66;101649.56;4998859;28;20208;-84
2022/11/27 02:58:32;;;;;;;13.03;11.57;;;;;;;4.81;91.36;101639.97;4999515;28;20221;-85
2022/11/27 03:01:01;;;;;;;12.70;11.53;;;;;;;4.82;92.35;101634.84;4999504;28;20718;-84
2022/11/27 03:03:34;;;;;;;12.37;11.20;;;;;;;4.81;91.80;101635.66;4999603;28;20218;-85
2022/11/27 03:06:05;;;;;;;14.53;11.60;;;;;;;4.78;92.04;101625.25;4999525;28;20209;-84
2022/11/27 03:08:38;;;;;;;11.80;10.53;;;;;;;4.86;91.90;101626.31;4999696;28;20212;-84
2022/11/27 03:11:08;;;;;;;10.67;9.57;;;;;;;4.82;91.61;101636.56;4999161;28;20231;-84
2022/11/27 03:13:37;;;;;;;11.53;10.33;;;;;;;4.71;91.26;101649.22;4999926;28;20571;-84
2022/11/27 03:16:11;;;;;;;12.33;9.27;;;;;;;4.68;91.14;101639.69;5000047;28;20281;-85
2022/11/27 03:18:44;;;;;;;10.17;9.13;;;;;;;4.66;91.19;101640.47;5000135;28;20221;-84
2022/11/27 03:21:20;;;;;;;9.03;8.23;;;;;;;4.56;90.47;101644.56;4999315;28;20230;-86
2022/11/27 03:23:47;;;;;;;9.07;8.17;;;;;;;4.57;91.43;101638.53;5003668;28;20213;-83
2022/11/27 03:26:13;;;;;;;12.93;9.17;;;;;;;4.56;91.39;101629.91;4997767;28;20208;-84
2022/11/27 03:28:42;;;;;;;12.20;10.70;;;;;;;4.51;91.31;101625.44;4997219;28;20216;-83
2022/11/27 03:31:10;;;;;;;10.40;9.43;;;;;;;4.54;91.46;101616.06;4996887;28;20232;-85
2022/11/27 03:33:37;;;;;;;9.27;8.23;;;;;;;4.56;91.24;101619.56;4997247;28;20209;-85
2022/11/27 03:36:11;;;;;;;9.83;8.83;;;;;;;4.59;90.65;101634.28;4997629;28;20214;-83
2022/11/27 03:38:38;;;;;;;9.10;8.03;;;;;;;4.55;90.50;101641.06;4997466;28;20212;-83
2022/11/27 03:41:09;;;;;;;8.27;7.27;;;;;;;4.44;91.32;101642.53;4997030;28;20251;-85
2022/11/27 03:43:43;;;;;;;8.57;7.47;;;;;;;4.53;91.31;101639.28;4997482;28;20561;-85
2022/11/27 03:46:17;;;;;;;7.87;7.17;;;;;;;4.46;90.76;101633.09;4997928;28;20214;-85
2022/11/27 03:48:50;;;;;;;7.63;6.83;;;;;;;4.52;91.24;101634.94;4997290;28;20215;-85
2022/11/27 03:51:21;;;;;;;8.23;7.27;;;;;;;4.55;91.04;101625.56;4997263;28;20234;-83
2022/11/27 03:53:54;;;;;;;8.23;7.50;;;;;;;4.64;90.82;101631.78;4997661;28;20208;-85
2022/11/27 03:56:33;;;;;;;7.93;7.23;;;;;;;4.60;89.91;101651.56;4997976;28;20219;-84
2022/11/27 03:59:05;;;;;;;7.90;6.73;;;;;;;4.61;90.01;101655.88;4997262;28;20207;-84
2022/11/27 04:01:33;;;;;;;7.60;6.87;;;;;;;4.62;89.61;101665.41;4996629;28;20230;-85
2022/11/27 04:03:59;;;;;;;8.63;6.90;;;;;;;4.62;89.95;101678.31;4997308;28;20215;-84
2022/11/27 04:06:26;;;;;;;6.90;6.20;;;;;;;4.55;89.71;101697.97;4997429;28;20206;-84
2022/11/27 04:08:52;;;;;;;7.17;6.47;;;;;;;4.60;89.55;101697.19;4997209;28;20214;-85
2022/11/27 04:11:19;;;;;;;8.37;6.20;;;;;;;4.59;89.15;101698.91;4996207;28;20233;-85
2022/11/27 04:13:45;;;;;;;6.80;6.03;;;;;;;4.53;89.12;101706.53;4996165;28;20206;-83
2022/11/27 04:16:12;;;;;;;6.73;6.17;;;;;;;4.51;89.39;101700.44;4998047;28;20210;-83
2022/11/27 04:18:40;;;;;;;5.73;5.20;;;;;;;4.41;88.91;101701.91;4996576;28;20222;-83
2022/11/27 04:21:06;;;;;;;8.57;7.17;;;;;;;4.40;89.65;101700.16;4996728;28;20310;-83
2022/11/27 04:23:32;;;;;;;8.10;5.70;;;;;;;4.36;89.39;101688.84;4995886;28;20214;-85
2022/11/27 04:25:59;;;;;;;6.00;5.40;;;;;;;4.33;89.85;101683.59;4996540;28;20214;-85
2022/11/27 04:28:25;;;;;;;6.87;5.80;;;;;;;4.27;89.92;101667.94;4996632;28;20218;-85
2022/11/27 04:30:53;;;;;;;6.70;5.30;;;;;;;4.25;90.17;101653.22;4995740;28;20233;-84
2022/11/27 04:33:20;;;;;;;6.53;5.90;;;;;;;4.21;90.56;101636.75;4996377;28;20211;-84
2022/11/27 04:35:48;;;;;;;7.30;6.07;;;;;;;4.22;90.36;101637.63;4996748;28;20215;-84
2022/11/27 04:38:15;;;;;;;6.37;5.70;;;;;;;4.11;90.47;101633.03;4996207;28;20207;-86
2022/11/27 04:40:41;;;;;;;8.30;6.27;;;;;;;4.19;90.60;101622.91;4996104;28;20244;-86
2022/11/27 04:43:08;;;;;;;5.67;5.17;;;;;;;4.21;90.14;101635.88;4996335;28;20218;-84
2022/11/27 04:45:34;;;;;;;6.70;6.10;;;;;;;4.17;90.18;101629.75;4996178;28;20615;-86
2022/11/27 04:48:01;;;;;;;7.47;5.80;;;;;;;4.23;90.03;101624.75;4996390;28;20212;-86
2022/11/27 04:50:27;;;;;;;6.77;6.07;;;;;;;4.32;89.79;101616.34;4996022;28;20238;-84
2022/11/27 04:52:55;;;;;;;6.77;5.60;;;;;;;4.38;89.21;101629.44;4996485;28;20255;-86
2022/11/27 04:55:22;;;;;;;5.90;5.40;;;;;;;4.36;88.93;101650.09;4996501;28;20230;-86
2022/11/27 04:57:48;;;;;;;8.10;5.80;;;;;;;4.41;89.17;101636.41;4995096;28;20219;-86
2022/11/27 05:00:15;;;;;;;6.30;5.30;;;;;;;4.43;89.03;101634.72;4996602;28;20228;-83
2022/11/27 05:02:42;;;;;;;7.47;5.50;;;;;;;4.51;89.16;101635.78;4996290;28;20209;-84
2022/11/27 05:05:09;;;;;;;6.20;5.60;;;;;;;4.51;89.13;101641.84;4996160;28;20578;-84
2022/11/27 05:07:35;;;;;;;11.20;6.43;;;;;;;4.57;88.83;101630.78;4996723;28;20209;-84
2022/11/27 05:10:04;;;;;;;6.07;5.47;;;;;;;4.59;88.55;101639.44;4996515;28;20244;-85
2022/11/27 05:12:30;;;;;;;6.17;5.40;;;;;;;4.61;88.94;101637.75;4995955;28;20221;-84
2022/11/27 05:14:57;;;;;;;6.13;5.53;;;;;;;4.66;88.46;101643.03;4996257;28;20216;-83
2022/11/27 05:17:23;;;;;;;6.17;5.07;;;;;;;4.63;88.59;101656.78;4996322;28;20211;-84
2022/11/27 05:19:50;;;;;;;6.67;5.93;;;;;;;4.63;88.56;101654.19;4993545;28;20620;-81
2022/11/27 05:22:16;;;;;;;6.83;6.07;;;;;;;4.67;88.02;101655.16;4992744;28;20681;-83
2022/11/27 05:24:43;;;;;;;8.30;6.03;;;;;;;4.57;88.65;101654.91;4993493;28;20676;-84
2022/11/27 05:27:10;;;;;;;6.67;5.87;;;;;;;4.57;88.73;101641.97;4992931;28;20208;-84
2022/11/27 05:29:38;;;;;;;7.07;6.03;;;;;;;4.66;89.16;101636.19;4993397;28;20232;-84
2022/11/27 05:32:05;;;;;;;9.60;6.20;;;;;;;4.74;88.79;101619.13;4993126;28;20626;-83
2022/11/27 05:34:31;;;;;;;9.53;6.73;;;;;;;4.82;88.77;101621.03;4993125;28;20212;-84
2022/11/27 05:36:58;;;;;;;9.97;7.00;;;;;;;4.66;89.10;101610.31;4993049;28;20213;-84
2022/11/27 05:39:24;;;;;;;7.67;6.50;;;;;;;4.68;89.41;101598.31;4992838;28;20207;-84
2022/11/27 05:41:51;;;;;;;7.50;6.60;;;;;;;4.72;89.23;101591.50;4992929;28;20785;-85
2022/11/27 05:44:18;;;;;;;10.60;6.77;;;;;;;4.77;89.01;101576.94;4993058;28;20209;-84
2022/11/27 05:46:45;;;;;;;7.13;6.43;;;;;;;4.53;89.72;101574.66;4993193;28;20211;-84
2022/11/27 05:49:13;;;;;;;8.00;7.00;;;;;;;4.63;89.95;101543.00;4993101;28;20209;-85
2022/11/27 05:51:39;;;;;;;7.70;6.60;;;;;;;4.65;89.75;101551.66;4994000;28;20238;-83
2022/11/27 05:54:06;;;;;;;6.87;6.27;;;;;;;4.51;90.46;101540.13;4996313;28;20208;-84
2022/11/27 05:56:33;;;;;;;7.10;6.40;;;;;;;4.62;90.24;101524.84;4996500;28;20219;-83
2022/11/27 05:58:59;;;;;;;7.57;6.77;;;;;;;4.48;90.49;101525.44;4996726;28;20214;-83
2022/11/27 06:01:27;;;;;;;8.40;6.53;;;;;;;4.53;90.48;101512.59;4995782;28;20752;-83
2022/11/27 06:03:54;;;;;;;7.83;6.10;;;;;;;4.55;90.78;101493.69;4996744;28;20212;-85
2022/11/27 06:06:20;;;;;;;8.27;6.50;;;;;;;4.61;91.00;101492.97;4996195;28;20217;-84
2022/11/27 06:08:47;;;;;;;7.53;5.83;;;;;;;4.68;90.34;101501.75;4996232;28;20213;-85
2022/11/27 06:11:16;;;;;;;7.63;6.70;;;;;;;4.69;90.05;101496.59;4995920;28;20229;-84
2022/11/27 06:13:44;;;;;;;8.90;6.43;;;;;;;4.72;90.74;101493.22;4996728;28;20231;-85
2022/11/27 06:16:12;;;;;;;8.37;6.43;;;;;;;4.72;90.43;101501.84;4996632;28;20211;-84
2022/11/27 06:18:40;;;;;;;8.70;6.23;;;;;;;4.57;90.96;101488.56;4997082;28;20211;-84
2022/11/27 06:21:08;;;;;;;9.23;6.90;;;;;;;4.73;90.79;101479.44;4996038;28;20367;-84
2022/11/27 06:23:34;;;;;;;10.07;7.70;;;;;;;4.75;89.84;101493.25;4996004;28;20678;-84
2022/11/27 06:26:10;;;;;;;7.20;6.20;;;;;;;4.81;89.93;101498.56;4996294;28;20211;-84
2022/11/27 06:28:37;;;;;;;7.30;6.60;;;;;;;4.85;89.76;101515.91;4996395;28;20687;-85
2022/11/27 06:31:06;;;;;;;7.87;6.17;;;;;;;4.85;89.33;101523.66;4996497;28;20258;-83
2022/11/27 06:33:32;;;;;;;7.80;5.30;;;;;;;4.90;89.00;101545.34;4997114;28;20208;-84
2022/11/27 06:36:00;;;;;;;9.37;6.27;;;;;;;4.93;88.34;101562.63;4996599;28;20215;-83
2022/11/27 06:38:27;;;;;;;7.00;6.40;;;;;;;4.87;88.32;101573.72;4996549;28;20261;-84
2022/11/27 06:40:53;;;;;;;8.67;5.77;;;;;;;4.86;88.51;101574.56;5018918;22;20569;-78
2022/11/27 06:43:19;;;;;;;6.87;6.17;;;;;;;4.72;88.53;101582.00;5016197;28;20637;-78
2022/11/27 06:45:55;;;;;;;8.93;6.07;;;;;;;4.78;89.03;101578.72;5015462;28;20840;-77
2022/11/27 06:48:21;;;;;;;8.40;5.93;;;;;;;4.84;89.49;101568.50;5015486;28;20216;-80
2022/11/27 06:50:47;;;;;;;6.83;6.10;;;;;;;4.70;89.06;101573.34;5014775;28;20235;-78
2022/11/27 06:53:15;;;;;;;6.53;5.70;;;;;;;4.84;88.77;101557.28;5014551;28;20209;-77
2022/11/27 06:55:42;;;;;;;7.57;5.93;;;;;;;4.88;88.18;101562.53;5014698;28;20208;-77
2022/11/27 06:58:08;;;;;;;7.73;6.27;;;;;;;4.81;88.23;101586.50;5014434;28;20604;-78
2022/11/27 07:00:34;;;;;;;7.20;6.07;;;;;;;4.74;88.66;101582.06;5014224;28;20319;-77
2022/11/27 07:03:01;;;;;;;5.73;5.17;;;;;;;4.75;88.48;101584.66;5013245;28;20213;-77
2022/11/27 07:05:28;;;;;;;6.67;5.33;;;;;;;4.71;88.21;101588.00;5014253;28;20202;-77
2022/11/27 07:07:55;;;;;;;6.47;5.83;;;;;;;4.73;88.12;101601.00;5014323;28;20207;-77
2022/11/27 07:10:23;;;;;;;8.00;6.23;;;;;;;4.75;87.55;101607.94;5014176;28;20231;-77
2022/11/27 07:12:49;;;;;;;5.57;5.03;;;;;;;4.72;87.34;101612.19;5014378;28;20225;-78
2022/11/27 07:15:16;;;;;;;7.87;5.63;;;;;;;4.61;87.56;101618.81;5014500;28;20207;-77
2022/11/27 07:17:42;;;;;;;6.53;5.93;;;;;;;4.64;88.04;101612.00;5014144;28;20670;-77
2022/11/27 07:20:09;;;;;;;7.03;5.83;;;;;;;4.61;87.68;101606.75;5013710;28;20709;-77
2022/11/27 07:22:36;;;;;;;7.67;6.97;;;;;;;4.59;87.73;101613.59;5013476;28;20212;-77
2022/11/27 07:25:02;;;;;;;8.13;6.40;;;;;;;4.59;87.81;101608.41;5014002;28;20218;-78
2022/11/27 07:27:30;;;;;;;7.93;6.60;;;;;;;4.66;87.78;101606.84;5014400;28;20213;-77
2022/11/27 07:29:56;;;;;;;7.47;6.43;;;;;;;4.57;87.61;101598.03;5013607;28;20208;-77
2022/11/27 07:32:23;;;;;;;7.40;6.00;;;;;;;4.64;88.25;101588.72;5013567;28;20210;-77
2022/11/27 07:34:49;;;;;;;10.03;6.77;;;;;;;4.65;87.96;101587.88;5014387;28;20215;-78
2022/11/27 07:37:15;;;;;;;6.70;5.70;;;;;;;4.68;88.14;101579.34;5013850;28;20218;-78
2022/11/27 07:39:42;;;;;;;8.13;6.57;;;;;;;4.68;87.98;101576.75;5015850;28;20207;-77
2022/11/27 07:42:09;;;;;;;9.40;6.10;;;;;;;4.75;88.28;101566.56;5014953;28;20239;-78
2022/11/27 07:44:36;;;;;;;6.10;5.50;;;;;;;4.77;87.79;101574.34;5015874;28;20207;-78
2022/11/27 07:47:03;;;;;;;6.27;5.67;;;;;;;4.80;87.82;101568.38;5015286;28;20218;-77
2022/11/27 07:49:29;;;;;;;6.13;5.63;;;;;;;4.77;87.08;101564.00;5015342;28;20686;-78
2022/11/27 07:51:56;;;;;;;6.07;5.43;;;;;;;4.83;87.21;101568.44;5015200;28;20231;-77
2022/11/27 07:54:22;;;;;;;6.70;6.03;;;;;;;4.86;88.00;101569.41;5015636;28;20217;-77
2022/11/27 07:56:49;;;;;;;6.53;5.93;;;;;;;4.82;87.26;101571.91;5015714;28;20216;-77
2022/11/27 07:59:15;;;;;;;6.57;5.67;;;;;;;4.92;87.69;101566.09;5015367;28;20694;-77
2022/11/27 08:01:43;;;;;;;6.13;4.93;;;;;;;4.84;87.68;101560.72;5015014;28;20230;-77
2022/11/27 08:04:10;;;;;;;7.03;5.60;;;;;;;4.87;87.34;101558.19;5015866;28;20263;-78
2022/11/27 08:06:36;;;;;;;6.30;5.70;;;;;;;4.78;87.44;101565.78;5015199;28;20210;-77
2022/11/27 08:09:03;;;;;;;7.07;5.80;;;;;;;4.84;87.73;101552.09;5014923;28;20223;-78
2022/11/27 08:11:34;;;;;;;7.33;6.13;;;;;;;4.90;87.79;101553.09;5014558;28;20228;-78
2022/11/27 08:14:02;;;;;;;6.83;5.23;;;;;;;4.92;87.56;101553.16;5014909;28;20213;-77
2022/11/27 08:16:30;;;;;;;7.20;5.30;;;;;;;4.91;87.56;101541.91;5015653;28;20201;-77
2022/11/27 08:18:58;;;;;;;7.83;5.67;;;;;;;4.92;88.10;101548.84;5015246;28;20219;-78
2022/11/27 08:21:25;;;;;;;7.07;5.87;;;;;;;4.92;87.54;101556.59;5014828;28;20233;-78
2022/11/27 08:23:51;;;;;;;7.53;5.93;;;;;;;4.93;87.93;101557.47;5014960;28;20742;-77
2022/11/27 08:26:18;;;;;;;7.83;5.70;;;;;;;5.04;87.83;101537.88;5014922;28;20611;-78
2022/11/27 08:28:45;;;;;;;7.17;5.60;;;;;;;5.13;88.21;101532.91;5014771;28;20210;-77
2022/11/27 08:31:13;;;;;;;5.87;5.27;;;;;;;5.23;87.31;101546.03;5014574;28;20613;-78
2022/11/27 08:33:40;;;;;;;6.63;5.67;;;;;;;5.25;87.75;101559.88;5015431;28;20214;-77
2022/11/27 08:36:09;;;;;;;6.17;5.67;;;;;;;5.28;87.71;101553.06;5015069;28;20203;-77
2022/11/27 08:38:36;;;;;;;5.90;5.40;;;;;;;5.42;87.29;101568.00;5014816;28;20218;-77
2022/11/27 08:41:04;;;;;;;5.50;4.97;;;;;;;5.44;86.90;101568.91;5014222;28;20241;-77
2022/11/27 08:43:32;;;;;;;6.17;5.60;;;;;;;5.45;87.34;101566.34;5014470;28;20199;-78
2022/11/27 08:45:59;;;;;;;6.77;5.80;;;;;;;5.56;87.02;101559.66;5015322;28;20222;-78
2022/11/27 08:48:25;;;;;;;8.93;6.17;;;;;;;5.56;86.99;101561.38;5015127;28;20211;-78
2022/11/27 08:50:52;;;;;;;7.43;6.83;;;;;;;5.62;87.73;101539.91;5014660;28;20235;-78
2022/11/27 08:53:20;;;;;;;6.17;5.57;;;;;;;5.73;87.31;101539.28;5015115;28;20211;-78
2022/11/27 08:55:47;;;;;;;6.50;5.97;;;;;;;5.76;87.09;101538.44;5015360;28;20209;-77
2022/11/27 08:58:13;;;;;;;7.07;6.37;;;;;;;5.66;86.85;101552.06;5015129;28;20218;-78
2022/11/27 09:00:40;;;;;;;8.60;6.10;;;;;;;5.72;86.82;101559.97;5014941;28;20230;-78
2022/11/27 09:03:07;;;;;;;6.53;5.83;;;;;;;5.78;86.52;101565.25;5016214;28;20206;-78
2022/11/27 09:05:33;;;;;;;6.53;5.97;;;;;;;5.75;86.67;101553.13;5016420;28;20212;-78
2022/11/27 09:08:04;;;;;;;9.93;6.27;;;;;;;5.72;86.87;101558.22;5016061;28;20210;-78
2022/11/27 09:10:32;;;;;;;6.73;6.10;;;;;;;5.76;87.09;101533.25;5015796;28;20238;-78
2022/11/27 09:12:59;;;;;;;6.87;5.30;;;;;;;5.80;86.92;101529.00;5016652;28;20210;-78
2022/11/27 09:15:25;;;;;;;7.77;6.40;;;;;;;5.86;87.43;101519.63;5013480;28;20206;-77
2022/11/27 09:17:52;;;;;;;7.07;6.00;;;;;;;5.89;86.57;101531.78;5014206;28;20218;-78
2022/11/27 09:20:19;;;;;;;6.03;5.43;;;;;;;6.02;87.03;101525.97;5014004;28;20592;-78
2022/11/27 09:22:46;;;;;;;8.77;6.27;;;;;;;5.89;86.41;101542.16;5013219;28;20325;-77
2022/11/27 09:25:12;;;;;;;7.13;6.33;;;;;;;5.96;86.18;101534.50;5014235;28;20215;-77
2022/11/27 09:27:40;;;;;;;9.27;5.47;;;;;;;6.10;86.88;101536.47;5012908;28;20214;-78
2022/11/27 09:30:08;;;;;;;7.53;6.70;;;;;;;6.22;87.31;101521.13;5017331;28;20445;-77
2022/11/27 09:32:35;;;;;;;7.93;6.23;;;;;;;6.31;86.59;101510.06;5018709;28;20223;-77
2022/11/27 09:35:02;;;;;;;6.27;5.67;;;;;;;6.30;85.51;101519.56;5021015;28;20218;-79
2022/11/27 09:37:28;;;;;;;7.60;5.73;;;;;;;6.35;85.51;101525.66;5019233;28;20787;-79
2022/11/27 09:39:55;;;;;;;9.03;5.73;;;;;;;6.29;85.00;101542.88;5018693;28;20222;-77
2022/11/27 09:42:36;;;;;;;6.30;5.40;;;;;;;6.36;85.18;101550.78;5018978;28;20237;-78
2022/11/27 09:45:08;;;;;;;9.23;6.83;;;;;;;6.36;85.49;101544.69;5019307;28;20206;-78
2022/11/27 09:47:40;;;;;;;13.13;6.73;;;;;;;6.57;90.20;101500.06;5019443;28;20289;-78
2022/11/27 09:50:14;;;;;;;6.83;6.10;;;;;;;6.53;86.39;101475.81;5019488;28;20190;-78
2022/11/27 09:52:43;;;;;;;10.07;7.27;;;;;;;6.79;91.38;101407.81;5019461;28;20234;-78
2022/11/27 09:55:15;;;;;;;10.10;6.70;;;;;;;6.85;91.43;101330.03;5018792;28;20213;-78
2022/11/27 09:57:46;;;;;;;6.97;5.47;;;;;;;6.95;89.17;101372.53;5017220;28;20214;-79
2022/11/27 10:00:18;;;;;;;5.53;4.93;;;;;;;7.00;86.17;101440.06;5018175;28;20234;-78
2022/11/27 10:02:45;;;;;;;5.53;5.03;;;;;;;7.06;86.12;101476.50;5019854;28;20253;-78
2022/11/27 10:05:17;;;;;;;7.30;5.27;;;;;;;7.16;87.09;101486.16;5020400;28;20217;-78
2022/11/27 10:08:01;;;;;;;6.97;5.23;;;;;;;7.39;88.53;101455.22;5020699;28;20214;-79
2022/11/27 10:10:38;;;;;;;7.07;5.40;;;;;;;7.45;85.40;101476.09;5018933;28;20219;-78
2022/11/27 10:13:18;;;;;;;5.43;4.90;;;;;;;7.30;82.06;101549.50;5019987;28;20694;-78
2022/11/27 10:15:51;;;;;;;6.90;5.10;;;;;;;7.30;80.34;101630.03;5019288;28;20211;-79
2022/11/27 10:18:27;;;;;;;8.67;6.50;;;;;;;7.56;83.89;101603.50;5019807;28;20203;-79
2022/11/27 10:20:58;;;;;;;6.67;5.20;;;;;;;7.71;82.47;101595.91;5017282;28;20233;-78
2022/11/27 10:23:36;;;;;;;4.67;4.20;;;;;;;7.48;78.77;101698.66;5018994;28;20211;-79
2022/11/27 10:26:11;;;;;;;5.53;4.50;;;;;;;7.65;80.65;101704.09;5019246;28;20213;-79
2022/11/27 10:28:44;;;;;;;7.60;5.17;;;;;;;7.87;84.47;101622.03;5020008;28;20213;-79
2022/11/27 10:31:17;;;;;;;5.47;4.63;;;;;;;8.02;83.32;101588.41;5019414;28;20258;-80
2022/11/27 10:33:48;;;;;;;5.53;4.40;;;;;;;8.00;80.92;101610.94;5016091;28;20221;-79
2022/11/27 10:36:17;;;;;;;4.77;4.37;;;;;;;7.98;79.95;101666.38;5017889;28;20207;-79
2022/11/27 10:38:45;;;;;;;6.27;4.47;;;;;;;8.04;80.42;101679.44;5016178;28;20222;-77
2022/11/27 10:41:17;;;;;;;5.10;4.37;;;;;;;8.00;78.59;101680.28;5017259;28;20234;-78
2022/11/27 10:43:44;;;;;;;7.00;4.60;;;;;;;8.05;79.54;101704.63;5016053;28;20602;-77
2022/11/27 10:46:15;;;;;;;4.27;3.87;;;;;;;8.03;78.89;101722.78;5015760;28;20591;-78
2022/11/27 10:48:42;;;;;;;6.07;4.43;;;;;;;7.89;76.04;101777.22;5015669;28;20229;-77
2022/11/27 10:51:15;;;;;;;7.27;5.70;;;;;;;7.99;78.46;101791.22;5016281;28;20234;-78
2022/11/27 10:53:43;;;;;;;5.03;4.20;;;;;;;7.95;77.73;101753.88;5018024;28;20573;-79
2022/11/27 10:56:30;;;;;;;4.77;4.20;;;;;;;7.90;77.88;101752.94;5016084;28;20603;-78
2022/11/27 10:58:58;;;;;;;4.53;4.13;;;;;;;7.70;76.82;101757.88;5013639;28;20662;-78
2022/11/27 11:01:29;;;;;;;6.77;4.47;;;;;;;7.66;77.48;101781.22;4305908;28;10000801;-78
2022/11/27 11:04:05;;;;;;;4.43;4.10;;;;;;;7.58;77.08;101770.69;4994653;28;20743;-78
2022/11/27 11:06:38;;;;;;;5.07;4.13;;;;;;;7.54;76.18;101777.56;5001376;28;20214;-78
2022/11/27 11:09:12;;;;;;;4.87;4.20;;;;;;;7.55;77.82;101775.81;5013220;28;20244;-78
2022/11/27 11:11:39;;;;;;;6.10;4.30;;;;;;;7.54;76.86;101772.38;5013504;28;20237;-78
2022/11/27 11:14:15;;;;;;;6.10;4.13;;;;;;;7.49;77.50;101753.25;5013808;28;20209;-78
2022/11/27 11:16:44;;;;;;;3.87;3.47;;;;;;;7.56;77.19;101755.06;5014312;28;20598;-78
2022/11/27 11:19:22;;;;;;;5.10;3.73;;;;;;;7.55;76.76;101755.94;5013290;28;20214;-78
2022/11/27 11:21:48;;;;;;;4.63;4.17;;;;;;;7.56;75.89;101780.19;5012159;28;20234;-78
2022/11/27 11:24:24;;;;;;;4.20;3.80;;;;;;;7.63;76.66;101771.66;5012795;28;20262;-78
2022/11/27 11:26:54;;;;;;;4.33;3.63;;;;;;;7.65;76.30;101784.63;5011644;28;20221;-78
2022/11/27 11:29:30;;;;;;;5.63;3.70;;;;;;;7.79;76.47;101764.94;5011600;28;20222;-78
2022/11/27 11:32:03;;;;;;;4.70;3.30;;;;;;;7.81;76.97;101754.53;5011197;28;20253;-78
2022/11/27 11:34:31;;;;;;;5.37;4.13;;;;;;;7.78;76.43;101763.19;5011601;28;20697;-78
2022/11/27 11:37:00;;;;;;;4.13;3.80;;;;;;;7.68;75.37;101756.97;5011387;28;20301;-78